Time;durP1;ratioP1;P1;durP2;ratioP2;P2;SDS_P1;SDS_P2;PMS_P1;PMS_P2;Temp;Humidity;BMP_temperature;BMP_pressure;BME280_temperature;BME280_humidity;BME280_pressure;Samples;Min_cycle;Max_cycle;Signal;HPM_P1;HPM_P2
2022/04/07 00:01:27;;;;;;;1.90;0.57;;;;;;;;;;5091989;28;20028;-60
2022/04/07 00:03:53;;;;;;;0.30;0.30;;;;;;;;;;5091790;28;20032;-60
2022/04/07 00:06:19;;;;;;;0.63;0.40;;;;;;;;;;5091861;28;20027;-61
2022/04/07 00:08:45;;;;;;;1.95;0.40;;;;;;;;;;5092231;28;20024;-61
2022/04/07 00:11:11;;;;;;;0.90;0.40;;;;;;;;;;5091396;28;20058;-60
2022/04/07 00:13:38;;;;;;;0.55;0.55;;;;;;;;;;5091967;28;20385;-62
2022/04/07 00:16:04;;;;;;;0.55;0.50;;;;;;;;;;5091052;28;20032;-60
2022/04/07 00:18:30;;;;;;;0.60;0.40;;;;;;;;;;5091944;28;20032;-60
2022/04/07 00:20:56;;;;;;;0.55;0.55;;;;;;;;;;5091758;28;20047;-61
2022/04/07 00:23:23;;;;;;;0.77;0.40;;;;;;;;;;5092105;28;20028;-61
2022/04/07 00:25:49;;;;;;;0.68;0.32;;;;;;;;;;5092073;28;20024;-61
2022/04/07 00:28:15;;;;;;;0.50;0.40;;;;;;;;;;5090546;28;20119;-61
2022/04/07 00:30:43;;;;;;;2.25;0.45;;;;;;;;;;5091858;28;20043;-61
2022/04/07 00:33:09;;;;;;;0.40;0.38;;;;;;;;;;5091007;28;20081;-61
2022/04/07 00:35:35;;;;;;;0.50;0.40;;;;;;;;;;5091841;28;20107;-62
2022/04/07 00:38:02;;;;;;;0.77;0.30;;;;;;;;;;5090753;28;20035;-60
2022/04/07 00:40:28;;;;;;;0.70;0.45;;;;;;;;;;5092127;28;20069;-60
2022/04/07 00:42:54;;;;;;;0.60;0.40;;;;;;;;;;5091701;28;20028;-60
2022/04/07 00:45:21;;;;;;;0.40;0.40;;;;;;;;;;5091012;28;20028;-60
2022/04/07 00:47:48;;;;;;;0.55;0.30;;;;;;;;;;5091615;28;20048;-60
2022/04/07 00:50:15;;;;;;;0.75;0.40;;;;;;;;;;5091477;28;20043;-60
2022/04/07 00:52:42;;;;;;;0.55;0.40;;;;;;;;;;5095960;28;20100;-60
2022/04/07 00:55:10;;;;;;;0.95;0.40;;;;;;;;;;5095028;28;20024;-60
2022/04/07 00:57:36;;;;;;;0.50;0.47;;;;;;;;;;5095524;28;20027;-60
2022/04/07 01:00:03;;;;;;;0.40;0.32;;;;;;;;;;5095087;28;20172;-59
2022/04/07 01:02:29;;;;;;;0.25;0.25;;;;;;;;;;5096045;28;20035;-60
2022/04/07 01:04:57;;;;;;;0.40;0.40;;;;;;;;;;5096158;28;20028;-60
2022/04/07 01:07:23;;;;;;;0.55;0.40;;;;;;;;;;5094798;28;20040;-60
2022/04/07 01:09:49;;;;;;;0.80;0.45;;;;;;;;;;5095944;28;20058;-60
2022/04/07 01:12:15;;;;;;;0.40;0.40;;;;;;;;;;5094890;28;20063;-60
2022/04/07 01:14:54;;;;;;;0.60;0.45;;;;;;;;;;5095119;28;20016;-60
2022/04/07 01:17:20;;;;;;;0.75;0.38;;;;;;;;;;5094471;28;20027;-60
2022/04/07 01:19:46;;;;;;;0.60;0.38;;;;;;;;;;5095545;28;20024;-60
2022/04/07 01:22:13;;;;;;;0.50;0.32;;;;;;;;;;5094538;28;20060;-61
2022/04/07 01:24:39;;;;;;;0.40;0.30;;;;;;;;;;5095645;28;20035;-60
2022/04/07 01:27:05;;;;;;;0.73;0.47;;;;;;;;;;5094395;28;20028;-60
2022/04/07 01:29:31;;;;;;;0.20;0.20;;;;;;;;;;5095219;28;20028;-60
2022/04/07 01:32:00;;;;;;;0.47;0.47;;;;;;;;;;5094189;28;20039;-61
2022/04/07 01:34:26;;;;;;;0.82;0.30;;;;;;;;;;5095003;28;20036;-61
2022/04/07 01:36:53;;;;;;;0.30;0.30;;;;;;;;;;5095052;28;20038;-61
2022/04/07 01:39:24;;;;;;;0.57;0.30;;;;;;;;;;5094350;28;20089;-61
2022/04/07 01:41:51;;;;;;;0.63;0.40;;;;;;;;;;5094997;28;20020;-61
2022/04/07 01:44:18;;;;;;;0.52;0.30;;;;;;;;;;5094215;28;20032;-61
2022/04/07 01:46:44;;;;;;;0.35;0.22;;;;;;;;;;5094905;28;20028;-61
2022/04/07 01:49:11;;;;;;;0.38;0.38;;;;;;;;;;5093727;28;20035;-61
2022/04/07 01:51:38;;;;;;;0.38;0.30;;;;;;;;;;5094803;28;20078;-61
2022/04/07 01:54:04;;;;;;;0.38;0.38;;;;;;;;;;5093733;28;20032;-61
2022/04/07 01:56:31;;;;;;;0.43;0.40;;;;;;;;;;5093949;28;20055;-61
2022/04/07 01:58:57;;;;;;;0.68;0.50;;;;;;;;;;5094577;28;20024;-61
2022/04/07 02:01:23;;;;;;;0.63;0.40;;;;;;;;;;5093051;28;20093;-62
2022/04/07 02:03:49;;;;;;;0.43;0.40;;;;;;;;;;5094034;28;20064;-61
2022/04/07 02:06:16;;;;;;;0.40;0.40;;;;;;;;;;5093684;28;20445;-61
2022/04/07 02:08:43;;;;;;;0.20;0.20;;;;;;;;;;5094725;28;20028;-61
2022/04/07 02:11:12;;;;;;;3.42;0.40;;;;;;;;;;5093214;28;20533;-61
2022/04/07 02:13:39;;;;;;;0.30;0.30;;;;;;;;;;5094582;28;20102;-61
2022/04/07 02:16:07;;;;;;;0.30;0.30;;;;;;;;;;5093154;28;20094;-60
2022/04/07 02:18:33;;;;;;;1.20;0.30;;;;;;;;;;5094171;28;20036;-60
2022/04/07 02:20:59;;;;;;;0.38;0.30;;;;;;;;;;5094051;28;20028;-61
2022/04/07 02:23:27;;;;;;;0.30;0.30;;;;;;;;;;5093711;28;20028;-61
2022/04/07 02:25:53;;;;;;;0.30;0.30;;;;;;;;;;5094176;28;20035;-61
2022/04/07 02:28:19;;;;;;;0.47;0.45;;;;;;;;;;5075122;28;20032;-62
2022/04/07 02:30:48;;;;;;;0.55;0.30;;;;;;;;;;5093866;28;20032;-62
2022/04/07 02:33:14;;;;;;;0.30;0.30;;;;;;;;;;5093176;28;20024;-61
2022/04/07 02:35:41;;;;;;;1.27;0.40;;;;;;;;;;5088776;28;20024;-61
2022/04/07 02:38:07;;;;;;;0.60;0.35;;;;;;;;;;5092845;28;20130;-62
2022/04/07 02:40:33;;;;;;;0.50;0.40;;;;;;;;;;5093716;28;20504;-62
2022/04/07 02:42:59;;;;;;;0.65;0.30;;;;;;;;;;5093646;28;20028;-62
2022/04/07 02:45:25;;;;;;;0.43;0.40;;;;;;;;;;5092952;28;20030;-61
2022/04/07 02:47:51;;;;;;;0.28;0.20;;;;;;;;;;5093253;28;20020;-60
2022/04/07 02:50:17;;;;;;;0.43;0.20;;;;;;;;;;5092482;28;20078;-60
2022/04/07 02:52:44;;;;;;;0.93;0.40;;;;;;;;;;5093756;28;20046;-60
2022/04/07 02:55:10;;;;;;;0.20;0.20;;;;;;;;;;5092648;28;20036;-60
2022/04/07 02:57:36;;;;;;;0.40;0.32;;;;;;;;;;5093150;28;20488;-61
2022/04/07 03:00:05;;;;;;;0.22;0.22;;;;;;;;;;5092565;28;20119;-61
2022/04/07 03:02:32;;;;;;;0.20;0.20;;;;;;;;;;5073055;28;20115;-61
2022/04/07 03:04:58;;;;;;;0.38;0.20;;;;;;;;;;5073037;28;20028;-60
2022/04/07 03:07:24;;;;;;;0.50;0.40;;;;;;;;;;5074844;28;20592;-61
2022/04/07 03:09:50;;;;;;;0.35;0.20;;;;;;;;;;5093110;28;20020;-61
2022/04/07 03:12:17;;;;;;;0.13;0.13;;;;;;;;;;5092066;28;20020;-61
2022/04/07 03:14:43;;;;;;;0.50;0.50;;;;;;;;;;5092973;28;20046;-61
2022/04/07 03:17:09;;;;;;;0.40;0.40;;;;;;;;;;5092113;28;20464;-62
2022/04/07 03:19:35;;;;;;;0.20;0.20;;;;;;;;;;5092821;28;20434;-61
2022/04/07 03:22:01;;;;;;;0.60;0.40;;;;;;;;;;5092531;28;20032;-60
2022/04/07 03:24:27;;;;;;;2.15;0.50;;;;;;;;;;5092632;28;20034;-62
2022/04/07 03:26:53;;;;;;;0.75;0.30;;;;;;;;;;5093104;28;20027;-63
2022/04/07 03:29:21;;;;;;;0.95;0.30;;;;;;;;;;5091717;28;20024;-61
2022/04/07 03:31:47;;;;;;;0.70;0.30;;;;;;;;;;5092934;28;20020;-61
2022/04/07 03:34:13;;;;;;;0.30;0.30;;;;;;;;;;5092155;28;20031;-61
2022/04/07 03:36:39;;;;;;;0.40;0.40;;;;;;;;;;5092759;28;20032;-61
2022/04/07 03:39:05;;;;;;;0.50;0.45;;;;;;;;;;5091281;28;20117;-61
2022/04/07 03:41:31;;;;;;;0.85;0.47;;;;;;;;;;5092885;28;20063;-61
2022/04/07 03:43:58;;;;;;;0.80;0.40;;;;;;;;;;5092370;28;20492;-61
2022/04/07 03:46:24;;;;;;;0.32;0.30;;;;;;;;;;5091567;28;20026;-61
2022/04/07 03:48:51;;;;;;;0.52;0.30;;;;;;;;;;5092064;28;20397;-61
2022/04/07 03:51:17;;;;;;;0.50;0.50;;;;;;;;;;5091414;28;20034;-61
2022/04/07 03:53:43;;;;;;;1.00;0.40;;;;;;;;;;5092677;28;20063;-61
2022/04/07 03:56:09;;;;;;;0.52;0.30;;;;;;;;;;5091734;28;20024;-61
2022/04/07 03:58:36;;;;;;;0.30;0.30;;;;;;;;;;5092535;28;20381;-61
2022/04/07 04:01:02;;;;;;;0.30;0.30;;;;;;;;;;5092432;28;20047;-60
2022/04/07 04:03:28;;;;;;;0.40;0.40;;;;;;;;;;5091376;28;20024;-61
2022/04/07 04:05:54;;;;;;;0.30;0.20;;;;;;;;;;5092217;28;20036;-61
2022/04/07 04:08:20;;;;;;;0.28;0.28;;;;;;;;;;5091054;28;20020;-61
2022/04/07 04:10:46;;;;;;;0.57;0.30;;;;;;;;;;5092202;28;20020;-61
2022/04/07 04:13:12;;;;;;;0.85;0.30;;;;;;;;;;5091615;28;20028;-61
2022/04/07 04:15:38;;;;;;;0.20;0.20;;;;;;;;;;5092380;28;20020;-61
2022/04/07 04:18:04;;;;;;;1.20;0.20;;;;;;;;;;5091838;28;20385;-61
2022/04/07 04:20:30;;;;;;;0.40;0.40;;;;;;;;;;5091826;28;20055;-61
2022/04/07 04:22:56;;;;;;;0.50;0.30;;;;;;;;;;5092003;28;20020;-60
2022/04/07 04:25:23;;;;;;;0.30;0.25;;;;;;;;;;5091099;28;20028;-61
2022/04/07 04:27:49;;;;;;;0.20;0.20;;;;;;;;;;5092196;28;20020;-61
2022/04/07 04:30:15;;;;;;;0.95;0.38;;;;;;;;;;5090776;28;20046;-61
2022/04/07 04:32:43;;;;;;;0.32;0.30;;;;;;;;;;5074128;28;20147;-61
2022/04/07 04:35:10;;;;;;;0.50;0.20;;;;;;;;;;5091165;28;20048;-60
2022/04/07 04:37:36;;;;;;;0.20;0.20;;;;;;;;;;5091655;28;20058;-62
2022/04/07 04:40:02;;;;;;;0.65;0.30;;;;;;;;;;5091104;28;20080;-61
2022/04/07 04:42:28;;;;;;;0.88;0.45;;;;;;;;;;5090885;28;20020;-61
2022/04/07 04:44:54;;;;;;;0.30;0.30;;;;;;;;;;5083444;28;20082;-60
2022/04/07 04:47:20;;;;;;;0.40;0.30;;;;;;;;;;5091304;28;20023;-61
2022/04/07 04:49:46;;;;;;;0.30;0.30;;;;;;;;;;5091872;28;20115;-61
2022/04/07 04:52:12;;;;;;;0.25;0.20;;;;;;;;;;5090872;28;20381;-60
2022/04/07 04:54:38;;;;;;;1.10;0.30;;;;;;;;;;5091856;28;20107;-60
2022/04/07 04:57:06;;;;;;;0.63;0.20;;;;;;;;;;5091772;28;20461;-61
2022/04/07 04:59:32;;;;;;;0.40;0.30;;;;;;;;;;5091297;28;20028;-61
2022/04/07 05:01:58;;;;;;;0.17;0.15;;;;;;;;;;5091640;28;20504;-60
2022/04/07 05:04:24;;;;;;;0.98;0.60;;;;;;;;;;5090595;28;20106;-64
2022/04/07 05:06:50;;;;;;;0.77;0.30;;;;;;;;;;5091128;28;20036;-61
2022/04/07 05:09:16;;;;;;;0.65;0.38;;;;;;;;;;5090143;28;20099;-61
2022/04/07 05:11:42;;;;;;;0.75;0.30;;;;;;;;;;5096604;28;20017;-61
2022/04/07 05:14:09;;;;;;;0.20;0.20;;;;;;;;;;5093950;28;20519;-60
2022/04/07 05:16:35;;;;;;;1.55;0.40;;;;;;;;;;5089882;28;20095;-60
2022/04/07 05:19:01;;;;;;;0.82;0.20;;;;;;;;;;5091327;28;20056;-61
2022/04/07 05:21:27;;;;;;;0.30;0.20;;;;;;;;;;5091236;28;20055;-61
2022/04/07 05:23:54;;;;;;;1.02;0.30;;;;;;;;;;5090604;28;20373;-60
2022/04/07 05:26:20;;;;;;;0.98;0.40;;;;;;;;;;5090699;28;20032;-60
2022/04/07 05:28:45;;;;;;;0.25;0.20;;;;;;;;;;5091227;28;20032;-60
2022/04/07 05:31:12;;;;;;;1.45;0.40;;;;;;;;;;5090522;28;20024;-60
2022/04/07 05:33:38;;;;;;;1.00;0.30;;;;;;;;;;5091803;28;20484;-60
2022/04/07 05:36:04;;;;;;;0.70;0.30;;;;;;;;;;5091969;28;20020;-61
2022/04/07 05:38:30;;;;;;;1.15;0.50;;;;;;;;;;5093596;28;20040;-60
2022/04/07 05:40:56;;;;;;;2.42;0.45;;;;;;;;;;5095041;28;20043;-62
2022/04/07 05:43:22;;;;;;;0.60;0.32;;;;;;;;;;5094272;28;20032;-61
2022/04/07 05:45:50;;;;;;;6.93;1.27;;;;;;;;;;5095073;28;20031;-61
2022/04/07 05:48:16;;;;;;;0.65;0.35;;;;;;;;;;5093732;28;20481;-62
2022/04/07 05:50:42;;;;;;;1.05;0.40;;;;;;;;;;5094482;28;20036;-62
2022/04/07 05:53:10;;;;;;;3.40;0.90;;;;;;;;;;5094761;28;20107;-62
2022/04/07 05:55:36;;;;;;;2.45;0.80;;;;;;;;;;5094711;28;20023;-62
2022/04/07 05:58:03;;;;;;;3.47;0.77;;;;;;;;;;5094865;28;20039;-62
2022/04/07 06:00:29;;;;;;;5.03;1.05;;;;;;;;;;5093472;28;20101;-62
2022/04/07 06:02:55;;;;;;;4.97;0.60;;;;;;;;;;5093969;28;20476;-63
2022/04/07 06:05:21;;;;;;;4.82;0.73;;;;;;;;;;5073105;28;20028;-63
2022/04/07 06:07:47;;;;;;;3.03;0.77;;;;;;;;;;5092779;28;20117;-63
2022/04/07 06:10:14;;;;;;;2.83;0.70;;;;;;;;;;5094282;28;20019;-64
2022/04/07 06:12:42;;;;;;;8.30;0.90;;;;;;;;;;5094118;28;20544;-65
2022/04/07 06:15:09;;;;;;;3.97;0.70;;;;;;;;;;5094050;28;20016;-65
2022/04/07 06:17:35;;;;;;;2.83;0.50;;;;;;;;;;5093276;28;20488;-65
2022/04/07 06:20:02;;;;;;;7.97;1.63;;;;;;;;;;5093397;28;20050;-62
2022/04/07 06:22:28;;;;;;;4.88;0.75;;;;;;;;;;5093343;28;20375;-66
2022/04/07 06:24:54;;;;;;;7.15;1.30;;;;;;;;;;5094051;28;20027;-67
2022/04/07 06:27:20;;;;;;;3.97;0.70;;;;;;;;;;5093387;28;20089;-65
2022/04/07 06:29:46;;;;;;;4.55;0.90;;;;;;;;;;5093893;28;20043;-66
2022/04/07 06:32:12;;;;;;;2.22;1.10;;;;;;;;;;5093264;28;20465;-64
2022/04/07 06:34:39;;;;;;;6.32;0.75;;;;;;;;;;5093729;28;20027;-65
2022/04/07 06:37:05;;;;;;;4.50;1.00;;;;;;;;;;5093838;28;20024;-64
2022/04/07 06:39:31;;;;;;;5.82;1.10;;;;;;;;;;5058843;28;20048;-63
2022/04/07 06:41:58;;;;;;;5.95;1.25;;;;;;;;;;5060304;28;20032;-63
2022/04/07 06:44:24;;;;;;;4.00;0.60;;;;;;;;;;5052794;28;20031;-64
2022/04/07 06:46:50;;;;;;;3.95;0.65;;;;;;;;;;5070207;28;20485;-64
2022/04/07 06:49:16;;;;;;;2.65;0.90;;;;;;;;;;5072679;28;20032;-64
2022/04/07 06:51:42;;;;;;;5.25;1.30;;;;;;;;;;5073598;28;20097;-63
2022/04/07 06:54:08;;;;;;;5.28;1.77;;;;;;;;;;5073061;28;20025;-63
2022/04/07 06:56:34;;;;;;;1.92;0.60;;;;;;;;;;5072606;28;20052;-63
2022/04/07 06:59:01;;;;;;;3.83;0.70;;;;;;;;;;5073165;28;20094;-64
2022/04/07 07:01:27;;;;;;;2.60;0.80;;;;;;;;;;5071140;28;20017;-63
2022/04/07 07:03:53;;;;;;;4.05;0.60;;;;;;;;;;5072597;28;20128;-63
2022/04/07 07:06:19;;;;;;;3.13;0.63;;;;;;;;;;5068486;28;20100;-64
2022/04/07 07:08:45;;;;;;;5.72;0.70;;;;;;;;;;5057749;28;20033;-64
2022/04/07 07:11:11;;;;;;;2.25;1.00;;;;;;;;;;5069479;28;20477;-64
2022/04/07 07:13:38;;;;;;;4.53;0.70;;;;;;;;;;5054590;28;20114;-64
2022/04/07 07:16:04;;;;;;;2.38;1.00;;;;;;;;;;5061401;28;20021;-64
2022/04/07 07:18:30;;;;;;;1.27;0.50;;;;;;;;;;5071671;28;20033;-63
2022/04/07 07:20:56;;;;;;;4.75;0.60;;;;;;;;;;5072008;28;20119;-63
2022/04/07 07:23:22;;;;;;;1.55;0.68;;;;;;;;;;5071754;28;20029;-64
2022/04/07 07:25:48;;;;;;;1.65;0.63;;;;;;;;;;5071849;28;20095;-64
2022/04/07 07:28:14;;;;;;;0.88;0.40;;;;;;;;;;5071867;28;20116;-64
2022/04/07 07:30:40;;;;;;;2.45;0.50;;;;;;;;;;5071680;28;20025;-63
2022/04/07 07:33:07;;;;;;;1.08;0.40;;;;;;;;;;5068762;28;20428;-63
2022/04/07 07:35:33;;;;;;;2.45;0.60;;;;;;;;;;5070848;28;20484;-63
2022/04/07 07:38:01;;;;;;;1.95;0.52;;;;;;;;;;5075009;28;20029;-63
2022/04/07 07:40:28;;;;;;;2.80;0.55;;;;;;;;;;5091138;28;20028;-63
2022/04/07 07:42:57;;;;;;;2.67;0.60;;;;;;;;;;5091314;28;20044;-63
2022/04/07 07:45:24;;;;;;;4.35;1.00;;;;;;;;;;5091445;28;20020;-63
2022/04/07 07:47:52;;;;;;;1.67;0.65;;;;;;;;;;5092492;28;20025;-63
2022/04/07 07:50:19;;;;;;;1.55;0.50;;;;;;;;;;5091491;28;20056;-63
2022/04/07 07:52:45;;;;;;;2.60;0.65;;;;;;;;;;5092333;28;20099;-63
2022/04/07 07:55:11;;;;;;;2.78;0.70;;;;;;;;;;5092455;28;20036;-63
2022/04/07 07:57:37;;;;;;;2.45;0.95;;;;;;;;;;5090948;28;20036;-63
2022/04/07 08:00:04;;;;;;;1.88;0.47;;;;;;;;;;5091842;28;20497;-63
2022/04/07 08:02:31;;;;;;;2.72;0.70;;;;;;;;;;5091472;28;20025;-63
2022/04/07 08:04:57;;;;;;;2.70;0.70;;;;;;;;;;5092138;28;20020;-64
2022/04/07 08:07:24;;;;;;;0.60;0.40;;;;;;;;;;5091141;28;20020;-64
2022/04/07 08:09:50;;;;;;;1.75;0.60;;;;;;;;;;5091990;28;20040;-64
2022/04/07 08:12:16;;;;;;;1.58;0.55;;;;;;;;;;5073982;28;20503;-65
2022/04/07 08:14:42;;;;;;;2.00;0.57;;;;;;;;;;5090864;28;20060;-63
2022/04/07 08:17:08;;;;;;;0.85;0.30;;;;;;;;;;5091923;28;20047;-63
2022/04/07 08:19:35;;;;;;;1.55;0.68;;;;;;;;;;5091174;28;20032;-64
2022/04/07 08:22:02;;;;;;;0.60;0.50;;;;;;;;;;5091512;28;20070;-64
2022/04/07 08:24:28;;;;;;;4.82;0.90;;;;;;;;;;5090690;28;20128;-63
2022/04/07 08:26:54;;;;;;;2.00;0.65;;;;;;;;;;5073736;28;20111;-64
2022/04/07 08:29:20;;;;;;;1.27;0.40;;;;;;;;;;5091520;28;20408;-63
2022/04/07 08:31:46;;;;;;;1.13;0.60;;;;;;;;;;5091288;28;20036;-64
2022/04/07 08:34:12;;;;;;;2.38;0.63;;;;;;;;;;5073032;28;20114;-64
2022/04/07 08:36:39;;;;;;;0.98;0.52;;;;;;;;;;5091161;28;20074;-63
2022/04/07 08:39:05;;;;;;;0.63;0.38;;;;;;;;;;5091677;28;20052;-63
2022/04/07 08:41:34;;;;;;;1.67;0.40;;;;;;;;;;5089644;28;20111;-64
2022/04/07 08:44:00;;;;;;;0.80;0.50;;;;;;;;;;5091334;28;20024;-63
2022/04/07 08:46:28;;;;;;;1.33;0.40;;;;;;;;;;5090231;28;20479;-63
2022/04/07 08:48:55;;;;;;;0.65;0.50;;;;;;;;;;5091721;28;20036;-63
2022/04/07 08:51:21;;;;;;;1.27;0.43;;;;;;;;;;5091609;28;20416;-63
2022/04/07 08:53:47;;;;;;;1.63;0.75;;;;;;;;;;5090490;28;20476;-64
2022/04/07 08:56:13;;;;;;;1.17;0.50;;;;;;;;;;5091738;28;20024;-64
2022/04/07 08:58:39;;;;;;;1.50;0.50;;;;;;;;;;5090929;28;20036;-63
2022/04/07 09:01:05;;;;;;;0.95;0.38;;;;;;;;;;5090970;28;20020;-64
2022/04/07 09:03:31;;;;;;;5.63;0.70;;;;;;;;;;5088435;28;20032;-63
2022/04/07 09:06:01;;;;;;;1.45;0.43;;;;;;;;;;5091096;28;20016;-63
2022/04/07 09:08:39;;;;;;;1.48;0.73;;;;;;;;;;5090773;28;20395;-63
2022/04/07 09:11:06;;;;;;;1.23;0.50;;;;;;;;;;5092411;28;20027;-64
2022/04/07 09:13:42;;;;;;;0.90;0.30;;;;;;;;;;5093733;28;20043;-64
2022/04/07 09:16:13;;;;;;;2.05;0.40;;;;;;;;;;5095630;28;20457;-64
2022/04/07 09:18:39;;;;;;;0.93;0.40;;;;;;;;;;5094315;28;20085;-64
2022/04/07 09:21:06;;;;;;;0.63;0.43;;;;;;;;;;5095533;28;20081;-64
2022/04/07 09:23:38;;;;;;;0.98;0.38;;;;;;;;;;5094424;28;20050;-64
2022/04/07 09:26:05;;;;;;;1.92;0.95;;;;;;;;;;5095334;28;20028;-64
2022/04/07 09:28:31;;;;;;;0.95;0.60;;;;;;;;;;5094510;28;20409;-64
2022/04/07 09:30:58;;;;;;;0.90;0.55;;;;;;;;;;5094863;28;20096;-63
2022/04/07 09:33:25;;;;;;;1.77;0.52;;;;;;;;;;5095017;28;20032;-63
2022/04/07 09:36:05;;;;;;;1.73;0.80;;;;;;;;;;5094955;28;20069;-64
2022/04/07 09:38:31;;;;;;;0.70;0.50;;;;;;;;;;5093861;28;20536;-63
2022/04/07 09:41:10;;;;;;;1.45;0.50;;;;;;;;;;5094710;28;20024;-63
2022/04/07 09:43:43;;;;;;;0.90;0.30;;;;;;;;;;5093757;28;20123;-63
2022/04/07 09:46:10;;;;;;;0.70;0.40;;;;;;;;;;5094971;28;20074;-63
2022/04/07 09:48:37;;;;;;;2.28;1.00;;;;;;;;;;5093243;28;20024;-63
2022/04/07 09:51:09;;;;;;;2.25;0.50;;;;;;;;;;5094584;28;20393;-63
2022/04/07 09:53:39;;;;;;;1.08;0.65;;;;;;;;;;5093310;28;20035;-63
2022/04/07 09:56:08;;;;;;;8.70;1.30;;;;;;;;;;5094129;28;20076;-63
2022/04/07 09:58:34;;;;;;;0.80;0.47;;;;;;;;;;5093386;28;20034;-63
2022/04/07 10:01:02;;;;;;;0.50;0.40;;;;;;;;;;5094302;28;20035;-63
2022/04/07 10:03:29;;;;;;;0.45;0.30;;;;;;;;;;5093437;28;20396;-63
2022/04/07 10:05:56;;;;;;;0.38;0.38;;;;;;;;;;5094172;28;20424;-63
2022/04/07 10:08:22;;;;;;;0.40;0.30;;;;;;;;;;5097648;28;20036;-63
2022/04/07 10:10:48;;;;;;;0.68;0.47;;;;;;;;;;5093507;28;20030;-63
2022/04/07 10:13:15;;;;;;;1.10;0.55;;;;;;;;;;5093913;28;20541;-63
2022/04/07 10:15:42;;;;;;;0.68;0.28;;;;;;;;;;5093112;28;20027;-63
2022/04/07 10:18:09;;;;;;;1.20;0.40;;;;;;;;;;5093787;28;20476;-64
2022/04/07 10:20:38;;;;;;;0.75;0.32;;;;;;;;;;5090931;28;20081;-64
2022/04/07 10:23:13;;;;;;;0.57;0.32;;;;;;;;;;5093980;28;20040;-64
2022/04/07 10:25:43;;;;;;;0.98;0.32;;;;;;;;;;5093819;28;20027;-64
2022/04/07 10:28:10;;;;;;;0.90;0.50;;;;;;;;;;5093595;28;20032;-64
2022/04/07 10:30:47;;;;;;;1.48;0.30;;;;;;;;;;5092653;28;20059;-63
2022/04/07 10:33:31;;;;;;;0.30;0.30;;;;;;;;;;5093802;28;20063;-63
2022/04/07 10:35:57;;;;;;;0.77;0.30;;;;;;;;;;5093460;28;20028;-64
2022/04/07 10:38:44;;;;;;;1.02;0.40;;;;;;;;;;5093992;28;20162;-63
2022/04/07 10:41:10;;;;;;;1.55;0.38;;;;;;;;;;5093788;28;20107;-63
2022/04/07 10:43:38;;;;;;;1.15;0.40;;;;;;;;;;5091686;28;20036;-63
2022/04/07 10:46:08;;;;;;;1.15;0.30;;;;;;;;;;5082487;28;20427;-63
2022/04/07 10:48:35;;;;;;;0.75;0.30;;;;;;;;;;5072834;28;20050;-63
2022/04/07 10:51:08;;;;;;;2.33;0.40;;;;;;;;;;5086691;28;20063;-63
2022/04/07 10:53:38;;;;;;;0.90;0.38;;;;;;;;;;5092461;28;20059;-63
2022/04/07 10:56:07;;;;;;;0.50;0.22;;;;;;;;;;5093570;28;20028;-63
2022/04/07 10:58:39;;;;;;;0.40;0.38;;;;;;;;;;5092477;28;20020;-63
2022/04/07 11:01:05;;;;;;;2.90;0.40;;;;;;;;;;5093226;28;20098;-63
2022/04/07 11:03:31;;;;;;;0.20;0.20;;;;;;;;;;5092256;28;20443;-63
2022/04/07 11:06:01;;;;;;;0.52;0.28;;;;;;;;;;5092912;28;21696;-63
2022/04/07 11:08:30;;;;;;;0.50;0.30;;;;;;;;;;5093303;28;20031;-63
2022/04/07 11:10:56;;;;;;;0.50;0.20;;;;;;;;;;5092404;28;20012;-62
2022/04/07 11:13:41;;;;;;;0.70;0.30;;;;;;;;;;5092820;28;20465;-62
2022/04/07 11:16:16;;;;;;;0.45;0.28;;;;;;;;;;5093446;28;20077;-62
2022/04/07 11:18:51;;;;;;;1.05;0.35;;;;;;;;;;5092070;28;20422;-62
2022/04/07 11:21:17;;;;;;;0.50;0.22;;;;;;;;;;5093144;28;20579;-63
2022/04/07 11:23:44;;;;;;;1.65;0.30;;;;;;;;;;5091506;28;20119;-63
2022/04/07 11:26:19;;;;;;;0.32;0.17;;;;;;;;;;5093139;28;20032;-63
2022/04/07 11:29:18;;;;;;;0.63;0.30;;;;;;;;;;5092002;28;20027;-63
2022/04/07 11:31:50;;;;;;;0.17;0.17;;;;;;;;;;5027075;28;20048;-63
2022/04/07 11:34:35;;;;;;;0.45;0.30;;;;;;;;;;5078905;28;20113;-63
2022/04/07 11:37:01;;;;;;;0.65;0.30;;;;;;;;;;5092889;28;20028;-63
2022/04/07 11:39:29;;;;;;;0.20;0.20;;;;;;;;;;5091806;28;20040;-63
2022/04/07 11:41:57;;;;;;;0.45;0.45;;;;;;;;;;5092002;28;20020;-63
2022/04/07 11:44:25;;;;;;;0.40;0.30;;;;;;;;;;5092073;28;20373;-64
2022/04/07 11:46:51;;;;;;;0.30;0.30;;;;;;;;;;5091339;28;20512;-64
2022/04/07 11:49:17;;;;;;;0.30;0.20;;;;;;;;;;5092304;28;20027;-64
2022/04/07 11:51:45;;;;;;;1.20;0.40;;;;;;;;;;5091856;28;20028;-64
2022/04/07 11:54:15;;;;;;;0.20;0.20;;;;;;;;;;5091757;28;20644;-63
2022/04/07 11:56:41;;;;;;;0.50;0.40;;;;;;;;;;5091798;28;20028;-64
2022/04/07 11:59:07;;;;;;;0.57;0.47;;;;;;;;;;5091251;28;20481;-63
2022/04/07 12:01:37;;;;;;;0.60;0.30;;;;;;;;;;5090954;28;20078;-64
2022/04/07 12:04:05;;;;;;;0.32;0.20;;;;;;;;;;5092228;28;20032;-63
2022/04/07 12:06:32;;;;;;;1.15;0.30;;;;;;;;;;5091416;28;20020;-62
2022/04/07 12:08:58;;;;;;;0.20;0.20;;;;;;;;;;5091846;28;20012;-63
2022/04/07 12:11:25;;;;;;;0.30;0.30;;;;;;;;;;5074100;28;20039;-63
2022/04/07 12:13:52;;;;;;;0.17;0.17;;;;;;;;;;5091525;28;20023;-63
2022/04/07 12:16:18;;;;;;;0.55;0.22;;;;;;;;;;5091381;28;20048;-63
2022/04/07 12:18:53;;;;;;;0.32;0.20;;;;;;;;;;5090617;28;20079;-63
2022/04/07 12:21:19;;;;;;;0.40;0.30;;;;;;;;;;5091053;28;20099;-63
2022/04/07 12:23:47;;;;;;;0.82;0.28;;;;;;;;;;5091383;28;20036;-64
2022/04/07 12:26:13;;;;;;;2.20;0.40;;;;;;;;;;5091659;28;20032;-63
2022/04/07 12:28:40;;;;;;;0.30;0.20;;;;;;;;;;5072967;28;20368;-63
2022/04/07 12:31:11;;;;;;;0.25;0.20;;;;;;;;;;5091854;28;20027;-63
2022/04/07 12:33:44;;;;;;;0.20;0.20;;;;;;;;;;5090883;28;20080;-63
2022/04/07 12:36:10;;;;;;;0.65;0.30;;;;;;;;;;5090899;28;20266;-63
2022/04/07 12:38:36;;;;;;;0.40;0.30;;;;;;;;;;5073581;28;20040;-64
2022/04/07 12:41:10;;;;;;;0.65;0.30;;;;;;;;;;5091736;28;20024;-64
2022/04/07 12:43:53;;;;;;;0.70;0.35;;;;;;;;;;5090891;28;20369;-63
2022/04/07 12:46:20;;;;;;;1.75;0.20;;;;;;;;;;5090282;28;20357;-64
2022/04/07 12:49:02;;;;;;;0.15;0.13;;;;;;;;;;5097093;28;20077;-65
2022/04/07 12:51:29;;;;;;;0.70;0.22;;;;;;;;;;5098282;28;20036;-64
2022/04/07 12:54:12;;;;;;;0.20;0.20;;;;;;;;;;5086856;28;20726;-63
2022/04/07 12:56:39;;;;;;;0.55;0.38;;;;;;;;;;5077095;28;20028;-64
2022/04/07 12:59:14;;;;;;;0.40;0.30;;;;;;;;;;5087617;28;20039;-64
2022/04/07 13:01:45;;;;;;;1.42;0.20;;;;;;;;;;5096767;28;20042;-63
2022/04/07 13:04:11;;;;;;;0.28;0.28;;;;;;;;;;5098040;28;20062;-63
2022/04/07 13:06:38;;;;;;;0.77;0.32;;;;;;;;;;5097423;28;20031;-63
2022/04/07 13:09:05;;;;;;;0.55;0.32;;;;;;;;;;5097127;28;20473;-63
2022/04/07 13:11:40;;;;;;;0.30;0.30;;;;;;;;;;5097725;28;20392;-63
2022/04/07 13:14:07;;;;;;;0.28;0.20;;;;;;;;;;5097725;28;20034;-64
2022/04/07 13:16:33;;;;;;;0.25;0.25;;;;;;;;;;5097056;28;20047;-63
2022/04/07 13:18:59;;;;;;;2.13;0.30;;;;;;;;;;5097179;28;20056;-63
2022/04/07 13:21:26;;;;;;;0.30;0.20;;;;;;;;;;5098099;28;20036;-64
2022/04/07 13:23:53;;;;;;;0.20;0.20;;;;;;;;;;5097224;28;20344;-63
2022/04/07 13:26:19;;;;;;;0.20;0.20;;;;;;;;;;5079850;28;20020;-62
2022/04/07 13:28:47;;;;;;;0.98;0.20;;;;;;;;;;5097227;28;20095;-63
2022/04/07 13:31:13;;;;;;;1.02;0.30;;;;;;;;;;5097745;28;20054;-63
2022/04/07 13:33:39;;;;;;;0.40;0.30;;;;;;;;;;5096654;28;20075;-64
2022/04/07 13:36:06;;;;;;;0.20;0.20;;;;;;;;;;5097804;28;20024;-63
2022/04/07 13:38:32;;;;;;;0.20;0.20;;;;;;;;;;5097497;28;20051;-63
2022/04/07 13:41:00;;;;;;;0.22;0.10;;;;;;;;;;5097103;28;20054;-63
2022/04/07 13:43:26;;;;;;;0.65;0.40;;;;;;;;;;5096890;28;20030;-63
2022/04/07 13:45:52;;;;;;;0.52;0.45;;;;;;;;;;5096328;28;20035;-64
2022/04/07 13:48:20;;;;;;;0.50;0.20;;;;;;;;;;5097514;28;20023;-63
2022/04/07 13:50:46;;;;;;;0.55;0.20;;;;;;;;;;5096962;28;20027;-64
2022/04/07 13:53:12;;;;;;;1.08;0.20;;;;;;;;;;5097363;28;20393;-64
2022/04/07 13:55:38;;;;;;;0.30;0.20;;;;;;;;;;5097146;28;20111;-63
2022/04/07 13:58:04;;;;;;;0.50;0.20;;;;;;;;;;5094280;28;20359;-64
2022/04/07 14:00:31;;;;;;;0.73;0.38;;;;;;;;;;5094867;28;20028;-63
2022/04/07 14:02:57;;;;;;;0.88;0.30;;;;;;;;;;5092819;28;20035;-64
2022/04/07 14:05:23;;;;;;;2.13;0.40;;;;;;;;;;5094399;28;20016;-64
2022/04/07 14:07:49;;;;;;;0.20;0.20;;;;;;;;;;5093820;28;20020;-63
2022/04/07 14:10:15;;;;;;;0.43;0.30;;;;;;;;;;5094641;28;20476;-64
2022/04/07 14:12:41;;;;;;;0.22;0.22;;;;;;;;;;5093459;28;20024;-63
2022/04/07 14:15:08;;;;;;;1.73;0.28;;;;;;;;;;5094438;28;20059;-63
2022/04/07 14:17:34;;;;;;;0.77;0.20;;;;;;;;;;5076423;28;20389;-64
2022/04/07 14:20:00;;;;;;;0.22;0.20;;;;;;;;;;5093936;28;20024;-64
2022/04/07 14:22:26;;;;;;;1.45;0.20;;;;;;;;;;5093960;28;20527;-64
2022/04/07 14:24:52;;;;;;;0.38;0.30;;;;;;;;;;5093367;28;20115;-64
2022/04/07 14:27:18;;;;;;;0.22;0.22;;;;;;;;;;5093457;28;20020;-64
2022/04/07 14:29:44;;;;;;;0.20;0.20;;;;;;;;;;5093432;28;20035;-63
2022/04/07 14:32:10;;;;;;;0.20;0.20;;;;;;;;;;5093823;28;20036;-63
2022/04/07 14:34:36;;;;;;;2.15;0.30;;;;;;;;;;5092617;28;20027;-64
2022/04/07 14:37:03;;;;;;;0.20;0.20;;;;;;;;;;5093433;28;20047;-63
2022/04/07 14:39:29;;;;;;;0.30;0.30;;;;;;;;;;5094131;28;20051;-64
2022/04/07 14:41:54;;;;;;;1.17;0.20;;;;;;;;;;5093190;28;20082;-64
2022/04/07 14:44:21;;;;;;;0.60;0.30;;;;;;;;;;5093833;28;20028;-63